Suances, Spain
Current Conditions -  °F | °C
As of 7:00 PM on Saturday 20 Dec 2014 (Local Time) from LEXJ Reporting Station
Drizzle Drizzle  
Wind Chill: 55°   Ceiling: 500
Heat Index: 55°   Visibility: 4mi
Dew Point: 54°   Wind: 2mph
Humidity: 94%   Direction: 220°SW
Pressure: 30.56"   Gusts: NA
Location:  43.43°N, 4.04°W
Report Text: LEXJ 201800Z 22002KT 6000 -DZ BKN005 OVC014 13/12 Q1035
Loading
Personal Weather Stations






























Interactive Weather Map New forecast layout! Learn more

10-Day Weather Forecast

Advertisements
Track Severe Weather on mobile